sensor_id;sensor_type;location;lat;lon;timestamp;P1;durP1;ratioP1;P2;durP2;ratioP2
10987;SDS011;5547;42.672;23.230;2022-09-09T00:04:34;16.33;;;15.03;;
10987;SDS011;5547;42.672;23.230;2022-09-09T00:20:35;16.30;;;15.00;;
10987;SDS011;5547;42.672;23.230;2022-09-09T00:28:13;15.57;;;14.17;;
10987;SDS011;5547;42.672;23.230;2022-09-09T00:30:44;15.80;;;14.50;;
10987;SDS011;5547;42.672;23.230;2022-09-09T00:33:13;16.37;;;15.03;;
10987;SDS011;5547;42.672;23.230;2022-09-09T00:35:44;16.70;;;15.30;;
10987;SDS011;5547;42.672;23.230;2022-09-09T00:38:15;16.80;;;15.30;;
10987;SDS011;5547;42.672;23.230;2022-09-09T00:40:58;16.57;;;15.30;;
10987;SDS011;5547;42.672;23.230;2022-09-09T00:43:33;16.83;;;15.33;;
10987;SDS011;5547;42.672;23.230;2022-09-09T00:46:14;17.03;;;15.63;;
10987;SDS011;5547;42.672;23.230;2022-09-09T00:59:48;18.10;;;16.60;;
10987;SDS011;5547;42.672;23.230;2022-09-09T01:02:27;18.17;;;16.67;;
10987;SDS011;5547;42.672;23.230;2022-09-09T01:04:56;18.93;;;17.43;;
10987;SDS011;5547;42.672;23.230;2022-09-09T01:07:27;18.43;;;16.83;;
10987;SDS011;5547;42.672;23.230;2022-09-09T01:12:25;20.13;;;18.43;;
10987;SDS011;5547;42.672;23.230;2022-09-09T01:15:17;20.33;;;18.60;;
10987;SDS011;5547;42.672;23.230;2022-09-09T01:18:05;19.50;;;17.90;;
10987;SDS011;5547;42.672;23.230;2022-09-09T01:23:27;19.33;;;17.77;;
10987;SDS011;5547;42.672;23.230;2022-09-09T01:28:47;19.97;;;18.27;;
10987;SDS011;5547;42.672;23.230;2022-09-09T01:31:19;20.50;;;18.80;;
10987;SDS011;5547;42.672;23.230;2022-09-09T01:33:47;19.90;;;18.10;;
10987;SDS011;5547;42.672;23.230;2022-09-09T01:38:46;20.03;;;18.40;;
10987;SDS011;5547;42.672;23.230;2022-09-09T01:41:12;20.33;;;18.63;;
10987;SDS011;5547;42.672;23.230;2022-09-09T01:43:37;20.67;;;18.87;;
10987;SDS011;5547;42.672;23.230;2022-09-09T01:46:03;19.67;;;18.17;;
10987;SDS011;5547;42.672;23.230;2022-09-09T01:48:28;20.50;;;18.80;;
10987;SDS011;5547;42.672;23.230;2022-09-09T01:50:54;20.13;;;18.40;;
10987;SDS011;5547;42.672;23.230;2022-09-09T01:53:21;21.13;;;19.33;;
10987;SDS011;5547;42.672;23.230;2022-09-09T01:55:54;21.10;;;19.07;;
10987;SDS011;5547;42.672;23.230;2022-09-09T01:58:37;21.30;;;19.60;;
10987;SDS011;5547;42.672;23.230;2022-09-09T02:03:51;21.83;;;19.83;;
10987;SDS011;5547;42.672;23.230;2022-09-09T02:06:35;20.90;;;19.20;;
10987;SDS011;5547;42.672;23.230;2022-09-09T02:09:04;22.60;;;20.70;;
10987;SDS011;5547;42.672;23.230;2022-09-09T02:11:31;21.67;;;19.87;;
10987;SDS011;5547;42.672;23.230;2022-09-09T02:14:03;22.73;;;20.73;;
10987;SDS011;5547;42.672;23.230;2022-09-09T02:16:50;22.03;;;20.23;;
10987;SDS011;5547;42.672;23.230;2022-09-09T02:19:31;22.53;;;20.70;;
10987;SDS011;5547;42.672;23.230;2022-09-09T02:21:59;23.27;;;21.17;;
10987;SDS011;5547;42.672;23.230;2022-09-09T02:24:27;22.90;;;20.90;;
10987;SDS011;5547;42.672;23.230;2022-09-09T02:26:56;22.77;;;20.93;;
10987;SDS011;5547;42.672;23.230;2022-09-09T02:29:42;23.50;;;21.40;;
10987;SDS011;5547;42.672;23.230;2022-09-09T02:32:11;22.93;;;20.93;;
10987;SDS011;5547;42.672;23.230;2022-09-09T02:34:43;23.03;;;20.93;;
10987;SDS011;5547;42.672;23.230;2022-09-09T02:37:12;22.93;;;21.03;;
10987;SDS011;5547;42.672;23.230;2022-09-09T02:39:42;24.23;;;22.20;;
10987;SDS011;5547;42.672;23.230;2022-09-09T02:42:08;23.53;;;21.43;;
10987;SDS011;5547;42.672;23.230;2022-09-09T02:44:33;24.70;;;22.63;;
10987;SDS011;5547;42.672;23.230;2022-09-09T02:49:57;23.80;;;21.80;;
10987;SDS011;5547;42.672;23.230;2022-09-09T02:55:39;24.53;;;22.53;;
10987;SDS011;5547;42.672;23.230;2022-09-09T02:58:10;22.93;;;20.93;;
10987;SDS011;5547;42.672;23.230;2022-09-09T03:00:41;22.30;;;20.57;;
10987;SDS011;5547;42.672;23.230;2022-09-09T03:03:10;23.13;;;21.23;;
10987;SDS011;5547;42.672;23.230;2022-09-09T03:05:35;22.87;;;20.67;;
10987;SDS011;5547;42.672;23.230;2022-09-09T03:08:02;23.80;;;21.70;;
10987;SDS011;5547;42.672;23.230;2022-09-09T03:10:29;23.37;;;21.37;;
10987;SDS011;5547;42.672;23.230;2022-09-09T03:12:54;24.10;;;21.90;;
10987;SDS011;5547;42.672;23.230;2022-09-09T03:15:20;22.70;;;20.70;;
10987;SDS011;5547;42.672;23.230;2022-09-09T03:17:46;23.10;;;21.23;;
10987;SDS011;5547;42.672;23.230;2022-09-09T03:20:12;23.47;;;21.40;;
10987;SDS011;5547;42.672;23.230;2022-09-09T03:22:38;23.93;;;21.93;;
10987;SDS011;5547;42.672;23.230;2022-09-09T03:25:03;23.83;;;21.73;;
10987;SDS011;5547;42.672;23.230;2022-09-09T03:27:29;23.47;;;21.30;;
10987;SDS011;5547;42.672;23.230;2022-09-09T03:29:55;23.27;;;21.37;;
10987;SDS011;5547;42.672;23.230;2022-09-09T03:32:21;23.30;;;21.10;;
10987;SDS011;5547;42.672;23.230;2022-09-09T03:34:47;21.43;;;19.70;;
10987;SDS011;5547;42.672;23.230;2022-09-09T03:37:15;21.53;;;19.83;;
10987;SDS011;5547;42.672;23.230;2022-09-09T03:39:42;21.63;;;19.83;;
10987;SDS011;5547;42.672;23.230;2022-09-09T03:42:08;21.40;;;19.70;;
10987;SDS011;5547;42.672;23.230;2022-09-09T03:44:33;23.17;;;21.13;;
10987;SDS011;5547;42.672;23.230;2022-09-09T03:46:59;22.73;;;20.87;;
10987;SDS011;5547;42.672;23.230;2022-09-09T03:49:26;22.97;;;20.87;;
10987;SDS011;5547;42.672;23.230;2022-09-09T03:51:54;23.00;;;21.00;;
10987;SDS011;5547;42.672;23.230;2022-09-09T03:54:21;24.03;;;21.67;;
10987;SDS011;5547;42.672;23.230;2022-09-09T03:56:47;23.43;;;21.40;;
10987;SDS011;5547;42.672;23.230;2022-09-09T03:59:13;22.73;;;20.90;;
10987;SDS011;5547;42.672;23.230;2022-09-09T04:01:39;24.87;;;22.57;;
10987;SDS011;5547;42.672;23.230;2022-09-09T04:04:05;24.07;;;21.93;;
10987;SDS011;5547;42.672;23.230;2022-09-09T04:06:30;24.10;;;22.00;;
10987;SDS011;5547;42.672;23.230;2022-09-09T04:08:56;23.80;;;21.60;;
10987;SDS011;5547;42.672;23.230;2022-09-09T04:11:21;24.10;;;21.83;;
10987;SDS011;5547;42.672;23.230;2022-09-09T04:13:47;23.07;;;21.07;;
10987;SDS011;5547;42.672;23.230;2022-09-09T04:16:14;22.73;;;20.67;;
10987;SDS011;5547;42.672;23.230;2022-09-09T04:18:40;22.70;;;20.60;;
10987;SDS011;5547;42.672;23.230;2022-09-09T04:21:06;21.73;;;19.93;;
10987;SDS011;5547;42.672;23.230;2022-09-09T04:23:35;23.50;;;21.50;;
10987;SDS011;5547;42.672;23.230;2022-09-09T04:26:01;24.70;;;22.50;;
10987;SDS011;5547;42.672;23.230;2022-09-09T04:28:28;27.23;;;24.93;;
10987;SDS011;5547;42.672;23.230;2022-09-09T04:30:55;22.70;;;20.70;;
10987;SDS011;5547;42.672;23.230;2022-09-09T04:33:24;25.60;;;23.53;;
10987;SDS011;5547;42.672;23.230;2022-09-09T04:35:51;23.23;;;21.03;;
10987;SDS011;5547;42.672;23.230;2022-09-09T04:38:19;22.80;;;20.70;;
10987;SDS011;5547;42.672;23.230;2022-09-09T04:40:48;22.50;;;20.50;;
10987;SDS011;5547;42.672;23.230;2022-09-09T04:43:15;21.57;;;19.37;;
10987;SDS011;5547;42.672;23.230;2022-09-09T04:45:41;20.80;;;19.10;;
10987;SDS011;5547;42.672;23.230;2022-09-09T04:48:07;19.93;;;18.43;;
10987;SDS011;5547;42.672;23.230;2022-09-09T04:50:34;20.77;;;18.83;;
10987;SDS011;5547;42.672;23.230;2022-09-09T04:53:03;22.70;;;20.70;;
10987;SDS011;5547;42.672;23.230;2022-09-09T04:55:30;21.30;;;19.43;;
10987;SDS011;5547;42.672;23.230;2022-09-09T04:58:06;19.50;;;18.00;;
10987;SDS011;5547;42.672;23.230;2022-09-09T05:00:33;19.57;;;17.97;;
10987;SDS011;5547;42.672;23.230;2022-09-09T05:03:03;18.93;;;17.33;;
10987;SDS011;5547;42.672;23.230;2022-09-09T05:05:30;17.20;;;15.57;;
10987;SDS011;5547;42.672;23.230;2022-09-09T05:08:01;16.03;;;14.53;;
10987;SDS011;5547;42.672;23.230;2022-09-09T05:10:30;17.17;;;15.57;;
10987;SDS011;5547;42.672;23.230;2022-09-09T05:12:55;16.57;;;15.27;;
10987;SDS011;5547;42.672;23.230;2022-09-09T05:15:21;15.57;;;14.03;;
10987;SDS011;5547;42.672;23.230;2022-09-09T05:17:47;14.63;;;13.23;;
10987;SDS011;5547;42.672;23.230;2022-09-09T05:20:12;14.63;;;13.33;;
10987;SDS011;5547;42.672;23.230;2022-09-09T05:22:38;13.33;;;12.33;;
10987;SDS011;5547;42.672;23.230;2022-09-09T05:25:03;13.73;;;12.53;;
10987;SDS011;5547;42.672;23.230;2022-09-09T05:27:30;15.03;;;13.70;;
10987;SDS011;5547;42.672;23.230;2022-09-09T05:29:58;14.83;;;13.47;;
10987;SDS011;5547;42.672;23.230;2022-09-09T05:32:23;15.57;;;14.37;;
10987;SDS011;5547;42.672;23.230;2022-09-09T05:34:49;15.03;;;13.57;;
10987;SDS011;5547;42.672;23.230;2022-09-09T05:37:15;14.30;;;13.10;;
10987;SDS011;5547;42.672;23.230;2022-09-09T05:39:41;16.53;;;15.17;;
10987;SDS011;5547;42.672;23.230;2022-09-09T05:42:07;15.77;;;14.13;;
10987;SDS011;5547;42.672;23.230;2022-09-09T05:44:33;14.90;;;13.67;;
10987;SDS011;5547;42.672;23.230;2022-09-09T05:46:59;15.20;;;13.80;;
10987;SDS011;5547;42.672;23.230;2022-09-09T05:49:24;14.87;;;13.40;;
10987;SDS011;5547;42.672;23.230;2022-09-09T05:51:50;14.43;;;13.30;;
10987;SDS011;5547;42.672;23.230;2022-09-09T05:54:16;14.53;;;13.20;;
10987;SDS011;5547;42.672;23.230;2022-09-09T05:56:41;14.53;;;13.13;;
10987;SDS011;5547;42.672;23.230;2022-09-09T05:59:07;14.17;;;12.83;;
10987;SDS011;5547;42.672;23.230;2022-09-09T06:01:34;13.70;;;12.40;;
10987;SDS011;5547;42.672;23.230;2022-09-09T06:04:01;11.20;;;10.40;;
10987;SDS011;5547;42.672;23.230;2022-09-09T06:06:30;12.97;;;11.93;;
10987;SDS011;5547;42.672;23.230;2022-09-09T06:09:02;12.87;;;11.60;;
10987;SDS011;5547;42.672;23.230;2022-09-09T06:11:29;12.93;;;11.93;;
10987;SDS011;5547;42.672;23.230;2022-09-09T06:14:00;13.43;;;11.80;;
10987;SDS011;5547;42.672;23.230;2022-09-09T06:16:26;12.33;;;11.23;;
10987;SDS011;5547;42.672;23.230;2022-09-09T06:18:53;12.73;;;11.57;;
10987;SDS011;5547;42.672;23.230;2022-09-09T06:21:21;13.00;;;11.33;;
10987;SDS011;5547;42.672;23.230;2022-09-09T06:23:48;11.83;;;10.93;;
10987;SDS011;5547;42.672;23.230;2022-09-09T06:26:19;13.37;;;12.03;;
10987;SDS011;5547;42.672;23.230;2022-09-09T06:28:47;14.07;;;12.97;;
10987;SDS011;5547;42.672;23.230;2022-09-09T06:31:15;13.17;;;12.07;;
10987;SDS011;5547;42.672;23.230;2022-09-09T06:33:42;13.50;;;12.30;;
10987;SDS011;5547;42.672;23.230;2022-09-09T06:36:15;13.63;;;12.20;;
10987;SDS011;5547;42.672;23.230;2022-09-09T06:38:43;13.13;;;12.03;;
10987;SDS011;5547;42.672;23.230;2022-09-09T06:41:10;12.83;;;11.67;;
10987;SDS011;5547;42.672;23.230;2022-09-09T06:43:38;14.17;;;12.13;;
10987;SDS011;5547;42.672;23.230;2022-09-09T06:46:08;12.10;;;11.10;;
10987;SDS011;5547;42.672;23.230;2022-09-09T06:48:45;12.90;;;11.60;;
10987;SDS011;5547;42.672;23.230;2022-09-09T06:51:14;12.20;;;11.10;;
10987;SDS011;5547;42.672;23.230;2022-09-09T06:53:41;13.17;;;11.90;;
10987;SDS011;5547;42.672;23.230;2022-09-09T06:58:41;13.10;;;11.87;;
10987;SDS011;5547;42.672;23.230;2022-09-09T07:01:09;14.38;;;13.10;;
10987;SDS011;5547;42.672;23.230;2022-09-09T07:03:37;13.97;;;12.57;;
10987;SDS011;5547;42.672;23.230;2022-09-09T07:06:13;13.53;;;12.30;;
10987;SDS011;5547;42.672;23.230;2022-09-09T07:08:42;15.17;;;11.87;;
10987;SDS011;5547;42.672;23.230;2022-09-09T07:11:08;12.40;;;11.25;;
10987;SDS011;5547;42.672;23.230;2022-09-09T07:13:35;12.75;;;11.50;;
10987;SDS011;5547;42.672;23.230;2022-09-09T07:16:07;12.80;;;11.80;;
10987;SDS011;5547;42.672;23.230;2022-09-09T07:18:35;14.48;;;12.05;;
10987;SDS011;5547;42.672;23.230;2022-09-09T07:21:01;14.75;;;13.32;;
10987;SDS011;5547;42.672;23.230;2022-09-09T07:23:28;15.38;;;13.82;;
10987;SDS011;5547;42.672;23.230;2022-09-09T07:25:55;16.02;;;13.55;;
10987;SDS011;5547;42.672;23.230;2022-09-09T07:28:20;15.82;;;13.70;;
10987;SDS011;5547;42.672;23.230;2022-09-09T07:31:00;15.02;;;13.02;;
10987;SDS011;5547;42.672;23.230;2022-09-09T07:33:30;14.52;;;13.13;;
10987;SDS011;5547;42.672;23.230;2022-09-09T07:38:57;13.55;;;12.27;;
10987;SDS011;5547;42.672;23.230;2022-09-09T07:41:34;13.23;;;11.90;;
10987;SDS011;5547;42.672;23.230;2022-09-09T07:44:03;15.68;;;11.45;;
10987;SDS011;5547;42.672;23.230;2022-09-09T07:46:37;12.25;;;11.05;;
10987;SDS011;5547;42.672;23.230;2022-09-09T07:49:07;15.88;;;11.77;;
10987;SDS011;5547;42.672;23.230;2022-09-09T07:51:34;12.93;;;11.45;;
10987;SDS011;5547;42.672;23.230;2022-09-09T07:54:03;13.27;;;11.93;;
10987;SDS011;5547;42.672;23.230;2022-09-09T07:56:30;16.48;;;11.52;;
10987;SDS011;5547;42.672;23.230;2022-09-09T07:58:57;14.57;;;11.80;;
10987;SDS011;5547;42.672;23.230;2022-09-09T08:01:34;12.93;;;11.60;;
10987;SDS011;5547;42.672;23.230;2022-09-09T08:04:08;14.57;;;11.23;;
10987;SDS011;5547;42.672;23.230;2022-09-09T08:06:42;12.23;;;10.98;;
10987;SDS011;5547;42.672;23.230;2022-09-09T08:09:11;15.73;;;10.57;;
10987;SDS011;5547;42.672;23.230;2022-09-09T08:11:37;12.43;;;11.13;;
10987;SDS011;5547;42.672;23.230;2022-09-09T08:14:05;11.95;;;10.93;;
10987;SDS011;5547;42.672;23.230;2022-09-09T08:16:33;14.07;;;10.70;;
10987;SDS011;5547;42.672;23.230;2022-09-09T08:19:01;11.85;;;10.43;;
10987;SDS011;5547;42.672;23.230;2022-09-09T08:21:33;20.42;;;13.07;;
10987;SDS011;5547;42.672;23.230;2022-09-09T08:24:01;13.30;;;10.70;;
10987;SDS011;5547;42.672;23.230;2022-09-09T08:26:35;12.50;;;11.20;;
10987;SDS011;5547;42.672;23.230;2022-09-09T08:29:03;12.95;;;10.70;;
10987;SDS011;5547;42.672;23.230;2022-09-09T08:31:34;14.23;;;11.63;;
10987;SDS011;5547;42.672;23.230;2022-09-09T08:34:03;11.85;;;10.73;;
10987;SDS011;5547;42.672;23.230;2022-09-09T08:36:32;12.65;;;11.05;;
10987;SDS011;5547;42.672;23.230;2022-09-09T08:39:03;11.75;;;10.52;;
10987;SDS011;5547;42.672;23.230;2022-09-09T08:46:56;14.13;;;11.93;;
10987;SDS011;5547;42.672;23.230;2022-09-09T08:52:22;13.75;;;11.15;;
10987;SDS011;5547;42.672;23.230;2022-09-09T08:55:22;12.50;;;11.20;;
10987;SDS011;5547;42.672;23.230;2022-09-09T09:06:06;12.40;;;11.13;;
10987;SDS011;5547;42.672;23.230;2022-09-09T09:08:40;13.25;;;11.90;;
10987;SDS011;5547;42.672;23.230;2022-09-09T09:11:09;12.20;;;11.00;;
10987;SDS011;5547;42.672;23.230;2022-09-09T09:13:38;12.57;;;11.30;;
10987;SDS011;5547;42.672;23.230;2022-09-09T09:16:13;12.63;;;11.32;;
10987;SDS011;5547;42.672;23.230;2022-09-09T09:18:47;12.35;;;10.88;;
10987;SDS011;5547;42.672;23.230;2022-09-09T09:21:16;12.00;;;10.77;;
10987;SDS011;5547;42.672;23.230;2022-09-09T09:23:58;13.55;;;10.10;;
10987;SDS011;5547;42.672;23.230;2022-09-09T09:26:32;12.93;;;10.48;;
10987;SDS011;5547;42.672;23.230;2022-09-09T09:29:00;12.70;;;10.50;;
10987;SDS011;5547;42.672;23.230;2022-09-09T09:31:35;12.43;;;10.27;;
10987;SDS011;5547;42.672;23.230;2022-09-09T09:34:00;11.40;;;10.20;;
10987;SDS011;5547;42.672;23.230;2022-09-09T09:36:43;11.25;;;9.77;;
10987;SDS011;5547;42.672;23.230;2022-09-09T09:39:27;10.82;;;9.77;;
10987;SDS011;5547;42.672;23.230;2022-09-09T09:41:54;15.65;;;9.35;;
10987;SDS011;5547;42.672;23.230;2022-09-09T09:44:31;10.30;;;9.50;;
10987;SDS011;5547;42.672;23.230;2022-09-09T09:52:25;11.55;;;9.10;;
10987;SDS011;5547;42.672;23.230;2022-09-09T09:54:55;61.13;;;14.65;;
10987;SDS011;5547;42.672;23.230;2022-09-09T09:57:28;12.55;;;8.57;;
10987;SDS011;5547;42.672;23.230;2022-09-09T10:02:38;9.25;;;8.45;;
10987;SDS011;5547;42.672;23.230;2022-09-09T10:07:42;9.20;;;8.20;;
10987;SDS011;5547;42.672;23.230;2022-09-09T10:10:25;9.57;;;8.63;;
10987;SDS011;5547;42.672;23.230;2022-09-09T10:13:11;10.35;;;8.45;;
10987;SDS011;5547;42.672;23.230;2022-09-09T10:40:26;14.23;;;8.98;;
10987;SDS011;5547;42.672;23.230;2022-09-09T10:45:48;9.60;;;8.70;;
10987;SDS011;5547;42.672;23.230;2022-09-09T10:48:30;15.35;;;8.55;;
10987;SDS011;5547;42.672;23.230;2022-09-09T10:54:08;11.65;;;8.73;;
10987;SDS011;5547;42.672;23.230;2022-09-09T10:57:04;26.65;;;10.68;;
10987;SDS011;5547;42.672;23.230;2022-09-09T10:59:38;17.15;;;8.80;;
10987;SDS011;5547;42.672;23.230;2022-09-09T11:10:52;10.32;;;9.32;;
10987;SDS011;5547;42.672;23.230;2022-09-09T11:13:32;11.52;;;8.75;;
10987;SDS011;5547;42.672;23.230;2022-09-09T11:16:03;12.02;;;9.00;;
10987;SDS011;5547;42.672;23.230;2022-09-09T11:18:44;12.77;;;8.88;;
10987;SDS011;5547;42.672;23.230;2022-09-09T11:21:34;23.80;;;13.73;;
10987;SDS011;5547;42.672;23.230;2022-09-09T11:24:03;9.85;;;8.95;;
10987;SDS011;5547;42.672;23.230;2022-09-09T11:26:39;9.13;;;8.23;;
10987;SDS011;5547;42.672;23.230;2022-09-09T11:40:40;9.55;;;8.55;;
10987;SDS011;5547;42.672;23.230;2022-09-09T11:46:12;10.80;;;9.57;;
10987;SDS011;5547;42.672;23.230;2022-09-09T11:48:57;12.27;;;9.23;;
10987;SDS011;5547;42.672;23.230;2022-09-09T11:53:54;13.27;;;9.70;;
10987;SDS011;5547;42.672;23.230;2022-09-09T11:59:01;10.07;;;8.57;;
10987;SDS011;5547;42.672;23.230;2022-09-09T12:01:39;9.85;;;8.93;;
10987;SDS011;5547;42.672;23.230;2022-09-09T12:09:46;9.23;;;7.57;;
10987;SDS011;5547;42.672;23.230;2022-09-09T12:15:00;8.85;;;7.18;;
10987;SDS011;5547;42.672;23.230;2022-09-09T12:17:42;10.65;;;7.43;;
10987;SDS011;5547;42.672;23.230;2022-09-09T12:20:16;8.55;;;7.45;;
10987;SDS011;5547;42.672;23.230;2022-09-09T12:30:58;7.78;;;6.82;;
10987;SDS011;5547;42.672;23.230;2022-09-09T12:33:36;8.30;;;5.82;;
10987;SDS011;5547;42.672;23.230;2022-09-09T12:36:05;10.65;;;6.75;;
10987;SDS011;5547;42.672;23.230;2022-09-09T12:38:55;12.40;;;6.60;;
10987;SDS011;5547;42.672;23.230;2022-09-09T12:41:35;7.15;;;6.47;;
10987;SDS011;5547;42.672;23.230;2022-09-09T12:44:04;8.02;;;6.38;;
10987;SDS011;5547;42.672;23.230;2022-09-09T12:49:21;8.07;;;5.93;;
10987;SDS011;5547;42.672;23.230;2022-09-09T12:51:56;7.50;;;6.63;;
10987;SDS011;5547;42.672;23.230;2022-09-09T12:54:22;7.45;;;6.70;;
10987;SDS011;5547;42.672;23.230;2022-09-09T12:56:48;8.52;;;6.18;;
10987;SDS011;5547;42.672;23.230;2022-09-09T12:59:25;7.20;;;5.63;;
10987;SDS011;5547;42.672;23.230;2022-09-09T13:02:00;7.00;;;6.32;;
10987;SDS011;5547;42.672;23.230;2022-09-09T13:04:25;6.93;;;6.22;;
10987;SDS011;5547;42.672;23.230;2022-09-09T13:06:51;9.85;;;7.35;;
10987;SDS011;5547;42.672;23.230;2022-09-09T13:09:20;8.75;;;6.30;;
10987;SDS011;5547;42.672;23.230;2022-09-09T13:11:50;23.73;;;7.95;;
10987;SDS011;5547;42.672;23.230;2022-09-09T13:14:24;8.77;;;6.38;;
10987;SDS011;5547;42.672;23.230;2022-09-09T13:16:59;9.35;;;6.18;;
10987;SDS011;5547;42.672;23.230;2022-09-09T13:19:32;7.18;;;6.45;;
10987;SDS011;5547;42.672;23.230;2022-09-09T13:22:11;6.65;;;5.97;;
10987;SDS011;5547;42.672;23.230;2022-09-09T13:24:44;9.30;;;6.20;;
10987;SDS011;5547;42.672;23.230;2022-09-09T13:27:30;8.88;;;5.72;;
10987;SDS011;5547;42.672;23.230;2022-09-09T13:30:00;10.15;;;6.05;;
10987;SDS011;5547;42.672;23.230;2022-09-09T13:32:26;6.80;;;6.07;;
10987;SDS011;5547;42.672;23.230;2022-09-09T13:34:56;8.95;;;5.90;;
10987;SDS011;5547;42.672;23.230;2022-09-09T13:37:34;7.80;;;6.30;;
10987;SDS011;5547;42.672;23.230;2022-09-09T13:40:02;9.52;;;7.03;;
10987;SDS011;5547;42.672;23.230;2022-09-09T13:42:35;7.63;;;6.53;;
10987;SDS011;5547;42.672;23.230;2022-09-09T13:45:28;9.05;;;6.53;;
10987;SDS011;5547;42.672;23.230;2022-09-09T13:47:53;13.57;;;11.30;;
10987;SDS011;5547;42.672;23.230;2022-09-09T13:52:56;6.50;;;5.80;;
10987;SDS011;5547;42.672;23.230;2022-09-09T13:55:24;8.38;;;6.10;;
10987;SDS011;5547;42.672;23.230;2022-09-09T13:57:54;6.35;;;5.70;;
10987;SDS011;5547;42.672;23.230;2022-09-09T14:00:23;6.25;;;5.72;;
10987;SDS011;5547;42.672;23.230;2022-09-09T14:02:51;9.68;;;6.32;;
10987;SDS011;5547;42.672;23.230;2022-09-09T14:05:19;8.35;;;6.22;;
10987;SDS011;5547;42.672;23.230;2022-09-09T14:07:45;8.23;;;6.10;;
10987;SDS011;5547;42.672;23.230;2022-09-09T14:10:11;8.50;;;6.18;;
10987;SDS011;5547;42.672;23.230;2022-09-09T14:12:37;8.50;;;6.03;;
10987;SDS011;5547;42.672;23.230;2022-09-09T14:15:04;7.30;;;5.93;;
10987;SDS011;5547;42.672;23.230;2022-09-09T14:17:33;9.10;;;5.88;;
10987;SDS011;5547;42.672;23.230;2022-09-09T14:20:02;7.47;;;5.90;;
10987;SDS011;5547;42.672;23.230;2022-09-09T14:22:32;9.77;;;6.03;;
10987;SDS011;5547;42.672;23.230;2022-09-09T14:24:58;6.60;;;5.93;;
10987;SDS011;5547;42.672;23.230;2022-09-09T14:27:23;7.03;;;5.88;;
10987;SDS011;5547;42.672;23.230;2022-09-09T14:29:51;6.82;;;6.13;;
10987;SDS011;5547;42.672;23.230;2022-09-09T14:32:18;8.30;;;6.80;;
10987;SDS011;5547;42.672;23.230;2022-09-09T14:34:43;8.45;;;7.65;;
10987;SDS011;5547;42.672;23.230;2022-09-09T14:37:09;7.18;;;6.45;;
10987;SDS011;5547;42.672;23.230;2022-09-09T14:39:34;8.50;;;6.03;;
10987;SDS011;5547;42.672;23.230;2022-09-09T14:42:00;9.95;;;5.85;;
10987;SDS011;5547;42.672;23.230;2022-09-09T14:44:27;7.05;;;5.65;;
10987;SDS011;5547;42.672;23.230;2022-09-09T14:46:52;8.73;;;5.78;;
10987;SDS011;5547;42.672;23.230;2022-09-09T14:49:19;7.45;;;5.57;;
10987;SDS011;5547;42.672;23.230;2022-09-09T14:51:45;7.40;;;5.50;;
10987;SDS011;5547;42.672;23.230;2022-09-09T14:54:10;9.90;;;5.82;;
10987;SDS011;5547;42.672;23.230;2022-09-09T14:56:36;6.90;;;5.40;;
10987;SDS011;5547;42.672;23.230;2022-09-09T14:59:03;7.72;;;5.22;;
10987;SDS011;5547;42.672;23.230;2022-09-09T15:01:29;10.02;;;5.45;;
10987;SDS011;5547;42.672;23.230;2022-09-09T15:04:00;6.93;;;5.57;;
10987;SDS011;5547;42.672;23.230;2022-09-09T15:06:29;6.68;;;4.88;;
10987;SDS011;5547;42.672;23.230;2022-09-09T15:08:58;7.63;;;5.82;;
10987;SDS011;5547;42.672;23.230;2022-09-09T15:11:25;7.07;;;6.20;;
10987;SDS011;5547;42.672;23.230;2022-09-09T15:13:53;8.13;;;6.13;;
10987;SDS011;5547;42.672;23.230;2022-09-09T15:16:20;8.23;;;6.25;;
10987;SDS011;5547;42.672;23.230;2022-09-09T15:18:50;8.70;;;5.53;;
10987;SDS011;5547;42.672;23.230;2022-09-09T15:21:18;7.97;;;5.75;;
10987;SDS011;5547;42.672;23.230;2022-09-09T15:23:44;11.15;;;6.30;;
10987;SDS011;5547;42.672;23.230;2022-09-09T15:26:10;9.98;;;6.15;;
10987;SDS011;5547;42.672;23.230;2022-09-09T15:28:39;11.35;;;6.15;;
10987;SDS011;5547;42.672;23.230;2022-09-09T15:31:12;10.23;;;6.45;;
10987;SDS011;5547;42.672;23.230;2022-09-09T15:33:39;7.35;;;6.47;;
10987;SDS011;5547;42.672;23.230;2022-09-09T15:36:19;9.77;;;6.38;;
10987;SDS011;5547;42.672;23.230;2022-09-09T15:38:46;8.77;;;5.95;;
10987;SDS011;5547;42.672;23.230;2022-09-09T15:41:13;10.40;;;6.70;;
10987;SDS011;5547;42.672;23.230;2022-09-09T15:43:42;7.57;;;6.78;;
10987;SDS011;5547;42.672;23.230;2022-09-09T15:48:46;11.88;;;6.70;;
10987;SDS011;5547;42.672;23.230;2022-09-09T15:51:11;10.38;;;6.43;;
10987;SDS011;5547;42.672;23.230;2022-09-09T15:53:38;13.15;;;6.82;;
10987;SDS011;5547;42.672;23.230;2022-09-09T15:56:07;14.88;;;7.72;;
10987;SDS011;5547;42.672;23.230;2022-09-09T15:58:33;10.48;;;7.95;;
10987;SDS011;5547;42.672;23.230;2022-09-09T16:01:03;7.25;;;6.50;;
10987;SDS011;5547;42.672;23.230;2022-09-09T16:03:36;10.82;;;6.88;;
10987;SDS011;5547;42.672;23.230;2022-09-09T16:06:02;10.63;;;7.43;;
10987;SDS011;5547;42.672;23.230;2022-09-09T16:08:36;9.43;;;6.75;;
10987;SDS011;5547;42.672;23.230;2022-09-09T16:11:10;9.20;;;6.70;;
10987;SDS011;5547;42.672;23.230;2022-09-09T16:13:39;9.15;;;6.78;;
10987;SDS011;5547;42.672;23.230;2022-09-09T16:16:06;10.18;;;7.75;;
10987;SDS011;5547;42.672;23.230;2022-09-09T16:18:50;8.43;;;7.65;;
10987;SDS011;5547;42.672;23.230;2022-09-09T16:21:22;11.30;;;7.30;;
10987;SDS011;5547;42.672;23.230;2022-09-09T16:23:50;8.60;;;7.60;;
10987;SDS011;5547;42.672;23.230;2022-09-09T16:26:18;11.82;;;7.95;;
10987;SDS011;5547;42.672;23.230;2022-09-09T16:28:44;8.45;;;7.60;;
10987;SDS011;5547;42.672;23.230;2022-09-09T16:31:14;10.88;;;8.50;;
10987;SDS011;5547;42.672;23.230;2022-09-09T16:33:49;10.27;;;8.35;;
10987;SDS011;5547;42.672;23.230;2022-09-09T16:36:16;12.13;;;9.13;;
10987;SDS011;5547;42.672;23.230;2022-09-09T16:38:43;12.85;;;9.82;;
10987;SDS011;5547;42.672;23.230;2022-09-09T16:41:10;15.45;;;10.07;;
10987;SDS011;5547;42.672;23.230;2022-09-09T16:43:37;13.52;;;10.32;;
10987;SDS011;5547;42.672;23.230;2022-09-09T16:46:03;14.68;;;9.63;;
10987;SDS011;5547;42.672;23.230;2022-09-09T16:48:36;13.60;;;10.00;;
10987;SDS011;5547;42.672;23.230;2022-09-09T16:51:05;14.20;;;9.95;;
10987;SDS011;5547;42.672;23.230;2022-09-09T16:53:33;13.67;;;9.60;;
10987;SDS011;5547;42.672;23.230;2022-09-09T16:59:02;24.20;;;15.70;;
10987;SDS011;5547;42.672;23.230;2022-09-09T17:01:31;16.50;;;12.10;;
10987;SDS011;5547;42.672;23.230;2022-09-09T17:04:00;15.38;;;12.38;;
10987;SDS011;5547;42.672;23.230;2022-09-09T17:06:28;16.43;;;12.27;;
10987;SDS011;5547;42.672;23.230;2022-09-09T17:08:54;16.30;;;10.60;;
10987;SDS011;5547;42.672;23.230;2022-09-09T17:11:25;12.70;;;10.73;;
10987;SDS011;5547;42.672;23.230;2022-09-09T17:13:51;13.70;;;9.37;;
10987;SDS011;5547;42.672;23.230;2022-09-09T17:16:18;11.93;;;10.00;;
10987;SDS011;5547;42.672;23.230;2022-09-09T17:18:51;11.13;;;9.97;;
10987;SDS011;5547;42.672;23.230;2022-09-09T17:21:18;12.00;;;10.13;;
10987;SDS011;5547;42.672;23.230;2022-09-09T17:23:46;12.48;;;9.40;;
10987;SDS011;5547;42.672;23.230;2022-09-09T17:26:13;10.83;;;9.93;;
10987;SDS011;5547;42.672;23.230;2022-09-09T17:28:41;11.00;;;10.00;;
10987;SDS011;5547;42.672;23.230;2022-09-09T17:31:08;12.23;;;10.33;;
10987;SDS011;5547;42.672;23.230;2022-09-09T17:33:36;11.43;;;10.50;;
10987;SDS011;5547;42.672;23.230;2022-09-09T17:36:06;12.13;;;10.40;;